createdAt,value
2017-12-22T00:00:21.388Z,23.63
2017-12-22T00:02:47.993Z,25.90
2017-12-22T00:05:14.611Z,23.50
2017-12-22T00:07:41.208Z,22.20
2017-12-22T00:10:07.808Z,23.20
2017-12-22T00:12:34.425Z,27.20
2017-12-22T00:15:01.028Z,29.00
2017-12-22T00:17:27.625Z,25.30
2017-12-22T00:19:54.244Z,25.07
2017-12-22T00:22:26.740Z,22.90
2017-12-22T00:24:53.344Z,23.87
2017-12-22T00:27:19.992Z,20.83
2017-12-22T00:29:46.548Z,22.77
2017-12-22T00:32:13.164Z,26.23
2017-12-22T00:34:39.764Z,24.80
2017-12-22T00:37:06.363Z,28.60
2017-12-22T00:39:32.973Z,24.07
2017-12-22T00:41:59.575Z,26.33
2017-12-22T00:44:26.184Z,23.10
2017-12-22T00:46:52.805Z,23.37
2017-12-22T00:49:19.408Z,27.83
2017-12-22T00:51:46.008Z,24.57
2017-12-22T00:54:12.628Z,26.30
2017-12-22T00:56:39.236Z,25.80
2017-12-22T00:59:05.847Z,29.77
2017-12-22T01:01:32.459Z,25.17
2017-12-22T01:03:59.055Z,24.30
2017-12-22T01:06:25.648Z,23.07
2017-12-22T01:08:52.270Z,24.17
2017-12-22T01:11:18.865Z,24.30
2017-12-22T01:13:45.459Z,26.13
2017-12-22T01:16:17.927Z,26.10
2017-12-22T01:18:50.256Z,21.90
2017-12-22T01:21:16.859Z,20.70
2017-12-22T01:23:43.468Z,24.47
2017-12-22T01:26:10.068Z,20.30
2017-12-22T01:28:36.664Z,23.97
2017-12-22T01:31:03.279Z,29.20
2017-12-22T01:33:29.876Z,23.53
2017-12-22T01:35:56.472Z,24.63
2017-12-22T01:38:23.084Z,23.03
2017-12-22T01:40:49.687Z,20.13
2017-12-22T01:43:16.288Z,18.07
2017-12-22T01:45:42.900Z,20.97
2017-12-22T01:48:09.500Z,23.13
2017-12-22T01:50:36.100Z,22.10
2017-12-22T01:53:02.712Z,23.30
2017-12-22T01:55:29.315Z,21.80
2017-12-22T01:57:55.903Z,19.23
2017-12-22T02:00:22.523Z,22.30
2017-12-22T02:02:49.112Z,21.50
2017-12-22T02:05:15.712Z,21.20
2017-12-22T02:07:42.323Z,19.53
2017-12-22T02:10:08.916Z,22.63
2017-12-22T02:12:35.524Z,24.67
2017-12-22T02:15:02.153Z,24.50
2017-12-22T02:17:28.744Z,28.90
2017-12-22T02:19:55.348Z,25.80
2017-12-22T02:22:21.976Z,24.40
2017-12-22T02:24:48.573Z,23.53
2017-12-22T02:27:15.167Z,20.70
2017-12-22T02:29:41.793Z,22.70
2017-12-22T02:32:08.392Z,21.97
2017-12-22T02:34:35.016Z,21.90
2017-12-22T02:37:01.619Z,22.17
2017-12-22T02:39:28.220Z,33.23
2017-12-22T02:41:54.844Z,32.80
2017-12-22T02:44:21.439Z,26.80
2017-12-22T02:46:48.049Z,28.33
2017-12-22T02:49:14.648Z,30.40
2017-12-22T02:51:41.256Z,24.40
2017-12-22T02:54:07.862Z,25.20
2017-12-22T02:56:34.476Z,20.53
2017-12-22T02:59:01.096Z,23.53
2017-12-22T03:01:27.708Z,25.50
2017-12-22T03:03:54.308Z,18.57
2017-12-22T03:06:20.920Z,20.40
2017-12-22T03:08:47.517Z,20.20
2017-12-22T03:11:14.112Z,19.13
2017-12-22T03:13:40.716Z,19.27
2017-12-22T03:16:07.316Z,17.67
2017-12-22T03:18:33.929Z,20.27
2017-12-22T03:21:00.524Z,16.70
2017-12-22T03:23:27.121Z,19.50
2017-12-22T03:25:53.723Z,16.57
2017-12-22T03:28:20.318Z,14.80
2017-12-22T03:30:46.928Z,14.80
2017-12-22T03:33:13.519Z,17.97
2017-12-22T03:35:40.125Z,13.67
2017-12-22T03:38:06.748Z,12.87
2017-12-22T03:40:33.344Z,14.80
2017-12-22T03:42:59.944Z,13.27
2017-12-22T03:45:26.541Z,13.30
2017-12-22T03:47:53.133Z,13.40
2017-12-22T03:50:19.732Z,13.00
2017-12-22T03:52:46.323Z,13.33
2017-12-22T03:55:12.928Z,13.60
2017-12-22T03:57:39.531Z,13.10
2017-12-22T04:00:06.140Z,12.93
2017-12-22T04:02:32.739Z,12.03
2017-12-22T04:04:59.332Z,13.80
2017-12-22T04:07:25.944Z,11.73
2017-12-22T04:09:52.540Z,9.60
2017-12-22T04:12:19.136Z,10.00
2017-12-22T04:14:45.724Z,7.90
2017-12-22T04:17:12.320Z,8.80
2017-12-22T04:19:38.920Z,9.97
2017-12-22T04:22:05.516Z,8.90
2017-12-22T04:24:32.140Z,11.20
2017-12-22T04:26:58.732Z,9.83
2017-12-22T04:29:25.315Z,9.27
2017-12-22T04:31:51.911Z,8.33
2017-12-22T04:34:18.499Z,9.60
2017-12-22T04:36:45.100Z,9.07
2017-12-22T04:39:11.687Z,8.47
2017-12-22T04:41:38.297Z,9.70
2017-12-22T04:44:04.897Z,9.07
2017-12-22T04:46:31.483Z,8.73
2017-12-22T04:48:58.083Z,9.30
2017-12-22T04:51:24.672Z,7.30
2017-12-22T04:53:51.278Z,7.87
2017-12-22T04:56:17.864Z,11.27
2017-12-22T04:58:44.460Z,7.47
2017-12-22T05:01:11.052Z,7.10
2017-12-22T05:03:37.659Z,5.90
2017-12-22T05:06:04.249Z,5.10
2017-12-22T05:08:30.856Z,6.63
2017-12-22T05:10:57.452Z,5.70
2017-12-22T05:13:24.043Z,9.50
2017-12-22T05:15:50.641Z,5.27
2017-12-22T05:18:17.223Z,4.53
2017-12-22T05:20:43.825Z,4.17
2017-12-22T05:23:10.419Z,4.10
2017-12-22T05:25:37.018Z,4.30
2017-12-22T05:28:03.615Z,4.10
2017-12-22T05:30:30.204Z,4.40
2017-12-22T05:32:56.807Z,4.43
2017-12-22T05:35:23.406Z,5.23
2017-12-22T05:37:50.008Z,6.77
2017-12-22T05:40:16.601Z,4.20
2017-12-22T05:42:43.196Z,5.40
2017-12-22T05:45:09.795Z,4.60
2017-12-22T05:47:36.388Z,4.90
2017-12-22T05:50:02.991Z,4.57
2017-12-22T05:52:29.576Z,4.23
2017-12-22T05:54:56.178Z,4.20
2017-12-22T05:57:22.779Z,4.10
2017-12-22T05:59:49.372Z,5.50
2017-12-22T06:02:15.978Z,4.20
2017-12-22T06:04:42.568Z,4.30
2017-12-22T06:07:09.167Z,5.73
2017-12-22T06:09:35.763Z,7.47
2017-12-22T06:12:02.360Z,4.80
2017-12-22T06:14:28.956Z,4.10
2017-12-22T06:16:55.549Z,4.63
2017-12-22T06:19:22.145Z,4.00
2017-12-22T06:21:48.737Z,4.07
2017-12-22T06:24:15.339Z,4.90
2017-12-22T06:26:41.924Z,4.53
2017-12-22T06:29:08.512Z,4.70
2017-12-22T06:31:35.110Z,4.50
2017-12-22T06:34:01.712Z,4.60
2017-12-22T06:36:28.316Z,4.57
2017-12-22T06:38:54.907Z,3.97
2017-12-22T06:41:21.500Z,3.50
2017-12-22T06:43:48.095Z,4.07
2017-12-22T06:46:14.697Z,3.63
2017-12-22T06:48:41.289Z,3.50
2017-12-22T06:51:07.872Z,3.80
2017-12-22T06:53:34.488Z,5.20
2017-12-22T06:56:01.081Z,3.70
2017-12-22T06:58:27.690Z,4.33
2017-12-22T07:00:54.292Z,4.30
2017-12-22T07:03:20.883Z,4.60
2017-12-22T07:05:47.488Z,3.70
2017-12-22T07:08:14.079Z,7.33
2017-12-22T07:10:40.679Z,4.83
2017-12-22T07:13:07.265Z,3.93
2017-12-22T07:15:33.855Z,3.43
2017-12-22T07:18:00.468Z,4.17
2017-12-22T07:20:27.063Z,3.93
2017-12-22T07:22:53.668Z,3.43
2017-12-22T07:25:20.256Z,4.50
2017-12-22T07:27:46.867Z,3.77
2017-12-22T07:30:13.464Z,3.30
2017-12-22T07:32:40.056Z,4.67
2017-12-22T07:35:06.647Z,3.70
2017-12-22T07:37:33.245Z,3.50
2017-12-22T07:39:59.836Z,4.07
2017-12-22T07:42:26.434Z,3.33
2017-12-22T07:44:53.025Z,3.53
2017-12-22T07:47:19.613Z,3.70
2017-12-22T07:49:46.199Z,3.33
2017-12-22T07:52:12.791Z,3.80
2017-12-22T07:54:39.388Z,4.23
2017-12-22T07:57:05.988Z,4.30
2017-12-22T07:59:32.580Z,5.07
2017-12-22T08:01:59.162Z,5.53
2017-12-22T08:04:25.769Z,6.27
2017-12-22T08:06:52.347Z,4.90
2017-12-22T08:09:18.945Z,8.87
2017-12-22T08:11:45.531Z,5.43
2017-12-22T08:14:12.133Z,5.90
2017-12-22T08:16:38.728Z,4.23
2017-12-22T08:19:05.319Z,3.77
2017-12-22T08:21:31.937Z,6.40
2017-12-22T08:23:58.520Z,6.77
2017-12-22T08:26:25.141Z,3.90
2017-12-22T08:28:51.724Z,4.27
2017-12-22T08:31:18.324Z,5.27
2017-12-22T08:33:44.926Z,5.97
2017-12-22T08:36:11.505Z,5.60
2017-12-22T08:38:38.100Z,4.07
2017-12-22T08:41:04.860Z,4.93
2017-12-22T08:43:31.469Z,5.97
2017-12-22T08:45:58.055Z,3.97
2017-12-22T08:48:24.692Z,4.43
2017-12-22T08:50:51.284Z,6.33
2017-12-22T08:53:17.896Z,5.57
2017-12-22T08:55:44.608Z,4.90
2017-12-22T08:58:11.187Z,4.03
2017-12-22T09:00:37.779Z,5.63
2017-12-22T09:03:04.381Z,4.20
2017-12-22T09:05:31.001Z,4.00
2017-12-22T09:07:57.648Z,4.23
2017-12-22T09:10:24.232Z,3.77
2017-12-22T09:12:50.904Z,4.07
2017-12-22T09:15:17.496Z,4.60
2017-12-22T09:17:44.095Z,4.50
2017-12-22T09:20:10.736Z,5.00
2017-12-22T09:22:37.342Z,5.00
2017-12-22T09:25:03.990Z,4.37
2017-12-22T09:27:30.540Z,9.50
2017-12-22T09:29:57.136Z,4.13
2017-12-22T09:32:23.723Z,4.47
2017-12-22T09:34:50.321Z,5.10
2017-12-22T09:37:16.904Z,5.47
2017-12-22T09:39:43.508Z,7.20
2017-12-22T09:42:10.096Z,6.97
2017-12-22T09:44:36.697Z,7.33
2017-12-22T09:47:03.292Z,9.87
2017-12-22T09:49:29.896Z,12.23
2017-12-22T09:51:56.499Z,13.60
2017-12-22T09:54:23.100Z,15.87
2017-12-22T09:56:49.696Z,16.13
2017-12-22T09:59:16.287Z,13.77
2017-12-22T10:01:42.879Z,12.83
2017-12-22T10:04:09.492Z,13.93
2017-12-22T10:06:36.087Z,16.70
2017-12-22T10:09:02.700Z,16.85
2017-12-22T10:11:29.300Z,17.95
2017-12-22T10:13:55.912Z,16.83
2017-12-22T10:16:22.509Z,19.17
2017-12-22T10:18:49.096Z,21.53
2017-12-22T10:21:15.708Z,46.70
2017-12-22T10:23:42.312Z,41.77
2017-12-22T10:26:08.912Z,23.63
2017-12-22T10:28:35.512Z,25.17
2017-12-22T10:31:02.125Z,31.60
2017-12-22T10:33:28.724Z,19.83
2017-12-22T10:35:55.328Z,22.37
2017-12-22T10:38:21.934Z,35.63
2017-12-22T10:40:48.536Z,45.97
2017-12-22T10:43:15.146Z,25.77
2017-12-22T10:45:41.744Z,18.53
2017-12-22T10:48:08.361Z,24.60
2017-12-22T10:50:34.965Z,14.47
2017-12-22T10:53:01.556Z,15.47
2017-12-22T10:55:28.155Z,15.23
2017-12-22T10:57:54.755Z,14.90
2017-12-22T11:00:21.355Z,17.47
2017-12-22T11:02:47.959Z,19.03
2017-12-22T11:05:14.564Z,20.33
2017-12-22T11:07:41.165Z,18.70
2017-12-22T11:10:07.760Z,16.20
2017-12-22T11:12:34.368Z,16.63
2017-12-22T11:15:00.967Z,17.00
2017-12-22T11:17:27.568Z,17.30
2017-12-22T11:19:54.175Z,16.10
2017-12-22T11:22:20.776Z,14.57
2017-12-22T11:24:47.377Z,15.30
2017-12-22T11:27:13.976Z,19.83
2017-12-22T11:29:40.563Z,17.67
2017-12-22T11:32:07.176Z,16.83
2017-12-22T11:34:33.770Z,15.67
2017-12-22T11:37:00.363Z,20.50
2017-12-22T11:39:26.963Z,21.20
2017-12-22T11:41:53.560Z,15.63
2017-12-22T11:44:20.178Z,19.60
2017-12-22T11:46:46.777Z,21.03
2017-12-22T11:49:13.384Z,23.50
2017-12-22T11:51:39.991Z,25.50
2017-12-22T11:54:06.603Z,23.77
2017-12-22T11:56:33.224Z,21.47
2017-12-22T11:58:59.816Z,22.73
2017-12-22T12:01:26.411Z,22.43
2017-12-22T12:03:53.013Z,25.37
2017-12-22T12:06:19.624Z,22.63
2017-12-22T12:08:46.241Z,21.43
2017-12-22T12:11:12.835Z,20.33
2017-12-22T12:13:39.439Z,28.90
2017-12-22T12:16:06.050Z,25.57
2017-12-22T12:18:32.649Z,21.40
2017-12-22T12:20:59.260Z,18.33
2017-12-22T12:23:25.859Z,24.30
2017-12-22T12:25:52.957Z,19.53
2017-12-22T12:28:19.608Z,17.70
2017-12-22T12:30:46.174Z,21.97
2017-12-22T12:33:12.772Z,20.33
2017-12-22T12:35:39.368Z,16.63
2017-12-22T12:38:05.976Z,16.47
2017-12-22T12:40:32.572Z,16.73
2017-12-22T12:42:59.184Z,14.80
2017-12-22T12:45:25.785Z,15.27
2017-12-22T12:47:52.391Z,15.47
2017-12-22T12:50:18.987Z,15.23
2017-12-22T12:52:45.577Z,14.67
2017-12-22T12:55:12.180Z,13.60
2017-12-22T12:57:38.772Z,16.10
2017-12-22T13:00:05.389Z,13.40
2017-12-22T13:02:32.027Z,12.37
2017-12-22T13:04:58.568Z,15.80
2017-12-22T13:07:25.189Z,17.37
2017-12-22T13:09:51.780Z,16.87
2017-12-22T13:12:18.384Z,19.90
2017-12-22T13:14:44.983Z,15.27
2017-12-22T13:17:11.584Z,17.93
2017-12-22T13:19:38.184Z,16.70
2017-12-22T13:22:04.952Z,16.47
2017-12-22T13:24:31.557Z,21.40
2017-12-22T13:26:58.151Z,17.90
2017-12-22T13:29:24.761Z,25.60
2017-12-22T13:31:51.351Z,19.27
2017-12-22T13:34:17.955Z,15.53
2017-12-22T13:36:44.550Z,13.40
2017-12-22T13:39:11.150Z,12.93
2017-12-22T13:41:37.759Z,12.77
2017-12-22T13:44:04.394Z,10.60
2017-12-22T13:46:31.000Z,14.40
2017-12-22T13:48:57.639Z,11.13
2017-12-22T13:51:24.284Z,12.83
2017-12-22T13:53:50.876Z,16.13
2017-12-22T13:56:17.465Z,13.87
2017-12-22T13:58:44.066Z,14.13
2017-12-22T14:01:10.656Z,14.77
2017-12-22T14:03:37.256Z,19.73
2017-12-22T14:06:03.856Z,19.13
2017-12-22T14:08:30.467Z,21.23
2017-12-22T14:10:57.064Z,21.10
2017-12-22T14:13:23.660Z,17.37
2017-12-22T14:15:50.260Z,16.77
2017-12-22T14:18:16.856Z,18.70
2017-12-22T14:20:43.633Z,18.47
2017-12-22T14:23:10.220Z,17.93
2017-12-22T14:25:36.836Z,20.43
2017-12-22T14:28:03.427Z,17.10
2017-12-22T14:30:30.024Z,18.70
2017-12-22T14:32:56.651Z,14.50
2017-12-22T14:35:23.244Z,12.60
2017-12-22T14:37:49.879Z,18.07
2017-12-22T14:40:16.483Z,13.83
2017-12-22T14:42:43.108Z,15.53
2017-12-22T14:45:09.704Z,21.27
2017-12-22T14:47:36.303Z,17.43
2017-12-22T14:50:03.026Z,15.70
2017-12-22T14:52:29.618Z,16.63
2017-12-22T14:54:56.220Z,17.47
2017-12-22T14:57:22.804Z,16.47
2017-12-22T14:59:50.351Z,14.97
2017-12-22T15:02:16.961Z,19.20
2017-12-22T15:04:43.559Z,19.00
2017-12-22T15:07:10.163Z,18.17
2017-12-22T15:09:36.796Z,18.53
2017-12-22T15:12:03.421Z,11.53
2017-12-22T15:14:30.054Z,7.80
2017-12-22T15:16:56.660Z,5.90
2017-12-22T15:19:23.260Z,4.00
2017-12-22T15:21:49.852Z,7.10
2017-12-22T15:24:16.464Z,3.77
2017-12-22T15:26:43.064Z,3.63
2017-12-22T15:29:09.928Z,4.00
2017-12-22T15:31:36.554Z,3.80
2017-12-22T15:34:03.146Z,6.90
2017-12-22T15:36:29.740Z,3.73
2017-12-22T15:38:56.347Z,6.80
2017-12-22T15:41:22.956Z,4.63
2017-12-22T15:43:49.551Z,4.40
2017-12-22T15:46:16.160Z,4.70
2017-12-22T15:48:42.760Z,5.10
2017-12-22T15:51:09.347Z,5.30
2017-12-22T15:53:35.945Z,7.40
2017-12-22T15:56:02.543Z,8.20
2017-12-22T15:58:29.156Z,7.97
2017-12-22T16:00:55.743Z,8.33
2017-12-22T16:03:22.343Z,6.23
2017-12-22T16:05:48.938Z,7.90
2017-12-22T16:08:15.536Z,8.27
2017-12-22T16:10:42.155Z,8.60
2017-12-22T16:13:08.729Z,6.73
2017-12-22T16:15:35.323Z,6.60
2017-12-22T16:18:01.916Z,14.43
2017-12-22T16:20:28.519Z,11.10
2017-12-22T16:22:55.120Z,14.70
2017-12-22T16:25:21.709Z,10.93
2017-12-22T16:27:48.299Z,7.40
2017-12-22T16:30:14.929Z,6.37
2017-12-22T16:32:42.336Z,6.07
2017-12-22T16:35:08.947Z,15.47
2017-12-22T16:37:35.540Z,9.60
2017-12-22T16:40:02.123Z,8.47
2017-12-22T16:42:28.717Z,5.70
2017-12-22T16:44:55.315Z,6.63
2017-12-22T16:47:21.910Z,8.93
2017-12-22T16:49:48.499Z,6.13
2017-12-22T16:52:15.098Z,5.43
2017-12-22T16:54:41.752Z,8.87
2017-12-22T16:57:08.356Z,11.50
2017-12-22T16:59:34.953Z,6.33
2017-12-22T17:02:01.555Z,11.00
2017-12-22T17:04:28.148Z,9.00
2017-12-22T17:06:54.741Z,9.03
2017-12-22T17:09:21.332Z,8.93
2017-12-22T17:11:47.941Z,9.00
2017-12-22T17:14:14.538Z,12.00
2017-12-22T17:16:41.132Z,9.93
2017-12-22T17:19:07.728Z,12.87
2017-12-22T17:21:34.324Z,12.20
2017-12-22T17:24:00.917Z,12.50
2017-12-22T17:26:27.516Z,15.67
2017-12-22T17:28:54.136Z,14.40
2017-12-22T17:31:20.750Z,11.07
2017-12-22T17:33:47.327Z,14.60
2017-12-22T17:36:13.936Z,17.90
2017-12-22T17:38:40.595Z,14.97
2017-12-22T17:41:07.246Z,14.10
2017-12-22T17:43:33.787Z,14.67
2017-12-22T17:46:00.387Z,17.20
2017-12-22T17:48:27.007Z,13.27
2017-12-22T17:50:53.599Z,14.90
2017-12-22T17:53:20.191Z,13.87
2017-12-22T17:55:46.796Z,12.27
2017-12-22T17:58:13.383Z,14.40
2017-12-22T18:00:39.996Z,11.77
2017-12-22T18:03:06.585Z,8.20
2017-12-22T18:05:33.187Z,12.27
2017-12-22T18:07:59.784Z,9.57
2017-12-22T18:10:26.380Z,11.40
2017-12-22T18:12:53.950Z,15.70
2017-12-22T18:15:20.553Z,10.87
2017-12-22T18:17:47.171Z,16.13
2017-12-22T18:20:13.776Z,14.00
2017-12-22T18:22:40.376Z,17.03
2017-12-22T18:25:06.984Z,14.63
2017-12-22T18:27:33.579Z,24.03
2017-12-22T18:30:00.203Z,26.70
2017-12-22T18:32:26.801Z,21.07
2017-12-22T18:34:53.446Z,35.53
2017-12-22T18:37:20.000Z,30.37
2017-12-22T18:39:46.600Z,24.67
2017-12-22T18:42:13.204Z,23.10
2017-12-22T18:44:40.139Z,29.30
2017-12-22T18:47:06.732Z,31.23
2017-12-22T18:49:33.352Z,38.47
2017-12-22T18:51:59.947Z,26.20
2017-12-22T18:54:26.555Z,23.23
2017-12-22T18:56:53.156Z,20.30
2017-12-22T18:59:19.764Z,24.17
2017-12-22T19:01:46.379Z,16.47
2017-12-22T19:04:12.976Z,17.10
2017-12-22T19:06:39.576Z,26.40
2017-12-22T19:09:06.179Z,23.83
2017-12-22T19:11:32.788Z,22.00
2017-12-22T19:13:59.379Z,26.90
2017-12-22T19:16:25.969Z,25.73
2017-12-22T19:18:52.572Z,23.57
2017-12-22T19:21:19.167Z,26.37
2017-12-22T19:23:45.768Z,27.10
2017-12-22T19:26:12.372Z,20.20
2017-12-22T19:28:38.994Z,18.07
2017-12-22T19:31:05.579Z,17.73
2017-12-22T19:33:32.168Z,19.93
2017-12-22T19:35:58.771Z,19.90
2017-12-22T19:38:25.367Z,19.57
2017-12-22T19:40:51.972Z,26.50
2017-12-22T19:43:18.563Z,21.23
2017-12-22T19:45:45.167Z,25.33
2017-12-22T19:48:11.770Z,24.00
2017-12-22T19:50:38.367Z,23.43
2017-12-22T19:53:04.973Z,26.80
2017-12-22T19:55:31.575Z,23.80
2017-12-22T19:57:58.188Z,26.00
2017-12-22T20:00:24.788Z,23.17
2017-12-22T20:02:51.388Z,22.17
2017-12-22T20:05:17.996Z,16.23
2017-12-22T20:07:44.592Z,21.60
2017-12-22T20:10:11.189Z,24.40
2017-12-22T20:12:37.836Z,18.90
2017-12-22T20:15:04.432Z,22.10
2017-12-22T20:17:31.032Z,24.57
2017-12-22T20:19:57.651Z,28.40
2017-12-22T20:22:24.242Z,23.83
2017-12-22T20:24:50.859Z,20.60
2017-12-22T20:27:17.458Z,25.00
2017-12-22T20:29:44.079Z,22.00
2017-12-22T20:32:10.708Z,19.80
2017-12-22T20:34:37.340Z,26.53
2017-12-22T20:37:03.955Z,21.03
2017-12-22T20:39:30.556Z,26.77
2017-12-22T20:41:57.155Z,21.40
2017-12-22T20:44:23.756Z,21.77
2017-12-22T20:46:50.372Z,27.90
2017-12-22T20:49:16.973Z,31.80
2017-12-22T20:51:43.593Z,26.60
2017-12-22T20:54:10.202Z,28.10
2017-12-22T20:56:36.867Z,26.40
2017-12-22T20:59:03.476Z,33.17
2017-12-22T21:01:30.111Z,39.27
2017-12-22T21:03:56.738Z,47.33
2017-12-22T21:06:23.374Z,49.10
2017-12-22T21:08:49.968Z,43.40
2017-12-22T21:11:16.604Z,39.80
2017-12-22T21:13:43.222Z,42.57
2017-12-22T21:16:09.853Z,45.70
2017-12-22T21:18:36.447Z,52.73
2017-12-22T21:21:03.072Z,53.23
2017-12-22T21:23:29.696Z,61.40
2017-12-22T21:25:56.296Z,61.93
2017-12-22T21:28:22.908Z,48.33
2017-12-22T21:30:49.508Z,49.90
2017-12-22T21:33:16.111Z,37.30
2017-12-22T21:35:42.725Z,40.23
2017-12-22T21:38:09.325Z,34.97
2017-12-22T21:40:35.933Z,30.80
2017-12-22T21:43:02.552Z,31.87
2017-12-22T21:45:29.172Z,31.70
2017-12-22T21:47:55.772Z,29.87
2017-12-22T21:50:22.380Z,27.50
2017-12-22T21:52:48.996Z,31.53
2017-12-22T21:55:15.592Z,28.63
2017-12-22T21:57:42.209Z,34.47
2017-12-22T22:00:08.812Z,33.27
2017-12-22T22:02:35.421Z,31.40
2017-12-22T22:05:02.024Z,30.60
2017-12-22T22:07:28.630Z,33.23
2017-12-22T22:09:55.236Z,34.30
2017-12-22T22:12:21.835Z,27.60
2017-12-22T22:14:48.440Z,36.53
2017-12-22T22:17:15.087Z,33.17
2017-12-22T22:19:41.692Z,34.10
2017-12-22T22:22:08.288Z,33.60
2017-12-22T22:24:34.889Z,33.23
2017-12-22T22:27:01.603Z,32.77
2017-12-22T22:29:28.192Z,34.10
2017-12-22T22:31:54.802Z,35.37
2017-12-22T22:34:21.400Z,31.43
2017-12-22T22:36:48.041Z,32.60
2017-12-22T22:39:14.627Z,31.17
2017-12-22T22:41:41.242Z,29.43
2017-12-22T22:44:07.844Z,37.43
2017-12-22T22:46:34.452Z,38.20
2017-12-22T22:49:01.067Z,39.47
2017-12-22T22:51:27.660Z,39.67
2017-12-22T22:53:54.259Z,39.47
2017-12-22T22:56:20.864Z,36.60
2017-12-22T22:58:47.463Z,37.00
2017-12-22T23:01:14.076Z,33.43
2017-12-22T23:03:40.691Z,31.40
2017-12-22T23:06:07.296Z,31.20
2017-12-22T23:08:33.899Z,29.07
2017-12-22T23:11:00.503Z,34.23
2017-12-22T23:13:27.134Z,35.63
2017-12-22T23:15:53.728Z,33.20
2017-12-22T23:18:20.328Z,32.07
2017-12-22T23:20:46.936Z,36.90
2017-12-22T23:23:13.550Z,38.23
2017-12-22T23:25:40.156Z,31.63
2017-12-22T23:28:06.760Z,38.50
2017-12-22T23:30:33.370Z,33.83
2017-12-22T23:32:59.964Z,39.03
2017-12-22T23:35:26.568Z,41.83
2017-12-22T23:37:53.174Z,52.63
2017-12-22T23:40:19.772Z,46.43
2017-12-22T23:42:46.380Z,53.13
2017-12-22T23:45:12.981Z,45.30
2017-12-22T23:47:39.596Z,50.27
2017-12-22T23:50:06.195Z,49.50
2017-12-22T23:52:32.801Z,50.97
2017-12-22T23:54:59.407Z,56.23
2017-12-22T23:57:26.045Z,54.27
2017-12-22T23:59:52.620Z,54.67
